地図

経路データ

SID SEASON NUMBER BASIN SUBBASIN NAME ISO_TIME NATURE LAT LON WMO_WIND WMO_PRES WMO_AGENCY TRACK_TYPE DIST2LAND LANDFALL IFLAG USA_AGENCY USA_ATCF_ID USA_LAT USA_LON USA_RECORD USA_STATUS USA_WIND USA_PRES USA_SSHS USA_R34_NE USA_R34_SE USA_R34_SW USA_R34_NW USA_R50_NE USA_R50_SE USA_R50_SW USA_R50_NW USA_R64_NE USA_R64_SE USA_R64_SW USA_R64_NW USA_POCI USA_ROCI USA_RMW USA_EYE TOKYO_LAT TOKYO_LON TOKYO_GRADE TOKYO_WIND TOKYO_PRES TOKYO_R50_DIR TOKYO_R50_LONG TOKYO_R50_SHORT TOKYO_R30_DIR TOKYO_R30_LONG TOKYO_R30_SHORT TOKYO_LAND CMA_LAT CMA_LON CMA_CAT CMA_WIND CMA_PRES HKO_LAT HKO_LON HKO_CAT HKO_WIND HKO_PRES NEWDELHI_LAT NEWDELHI_LON NEWDELHI_GRADE NEWDELHI_WIND NEWDELHI_PRES NEWDELHI_CI NEWDELHI_DP NEWDELHI_POCI REUNION_LAT REUNION_LON REUNION_TYPE REUNION_WIND REUNION_PRES REUNION_TNUM REUNION_CI REUNION_RMW REUNION_R34_NE REUNION_R34_SE REUNION_R34_SW REUNION_R34_NW REUNION_R50_NE REUNION_R50_SE REUNION_R50_SW REUNION_R50_NW REUNION_R64_NE REUNION_R64_SE REUNION_R64_SW REUNION_R64_NW BOM_LAT BOM_LON BOM_TYPE BOM_WIND BOM_PRES BOM_TNUM BOM_CI BOM_RMW BOM_R34_NE BOM_R34_SE BOM_R34_SW BOM_R34_NW BOM_R50_NE BOM_R50_SE BOM_R50_SW BOM_R50_NW BOM_R64_NE BOM_R64_SE BOM_R64_SW BOM_R64_NW BOM_ROCI BOM_POCI BOM_EYE BOM_POS_METHOD BOM_PRES_METHOD NADI_LAT NADI_LON NADI_CAT NADI_WIND NADI_PRES WELLINGTON_LAT WELLINGTON_LON WELLINGTON_WIND WELLINGTON_PRES DS824_LAT DS824_LON DS824_STAGE DS824_WIND DS824_PRES TD9636_LAT TD9636_LON TD9636_STAGE TD9636_WIND TD9636_PRES TD9635_LAT TD9635_LON TD9635_WIND TD9635_PRES TD9635_ROCI NEUMANN_LAT NEUMANN_LON NEUMANN_CLASS NEUMANN_WIND NEUMANN_PRES MLC_LAT MLC_LON MLC_CLASS MLC_WIND MLC_PRES USA_GUST BOM_GUST BOM_GUST_PER REUNION_GUST REUNION_GUST_PER USA_SEAHGT USA_SEARAD_NE USA_SEARAD_SE USA_SEARAD_SW USA_SEARAD_NW STORM_SPEED STORM_DIR
1976056N04163 1976 20 WP MM LORNA 1976-02-25 00:00:00 TS 4.40000 163.300 main 1438 1403 O________OOO__ jtwc_wp WP021976 4.40000 163.300 25 -1 4.40000 163.300 TC 25 4.40000 163.300 1 25 4.40000 163.300 25 1005 120 13 274
1976056N04163 1976 20 WP MM LORNA 1976-02-25 03:00:00 TS 4.44805 162.656 main 1403 1367 P________PPP__ WP021976 4.44261 162.650 25 -1 4.44261 162.650 TC 25 4.46434 162.675 1 25 4.44261 162.650 25 1005 120 13 275
1976056N04163 1976 20 WP MM LORNA 1976-02-25 06:00:00 TS 4.50819 162.010 main 1367 1340 O________OPO__ jtwc_wp WP021976 4.50000 162.000 25 -1 4.50000 162.000 TC 25 4.53275 162.040 1 25 4.50000 162.000 25 1005 120 13 276
1976056N04163 1976 20 WP MM LORNA 1976-02-25 09:00:00 TS 4.59116 161.359 main 1340 1304 P________PPP__ WP021976 4.58494 161.350 25 -1 4.58494 161.350 TC 25 4.60980 161.385 1 25 4.58494 161.350 25 1005 120 13 278
1976056N04163 1976 20 WP MM LORNA 1976-02-25 12:00:00 TS 4.70000 160.700 main 1304 1268 O________OOO__ jtwc_wp WP021976 4.70000 160.700 25 -1 4.70000 160.700 TC 25 4.70000 160.700 1 25 4.70000 160.700 25 1005 120 13 281
1976056N04163 1976 20 WP MM LORNA 1976-02-25 15:00:00 TS 4.83381 160.049 main 1261 1238 P________PPP__ WP021976 4.84237 160.072 25 -1 4.84237 160.072 TC 25 4.80813 159.980 1 25 4.84237 160.072 25 1005 150 14 282
1976056N04163 1976 20 WP MM LORNA 1976-02-25 18:00:00 TS 4.98501 159.361 main 1238 1193 O________OPO__ jtwc_wp WP021976 5.00000 159.400 25 -1 5.00000 159.400 TC 25 4.94002 159.242 1 25 5.00000 159.400 25 1005 180 15 281
1976056N04163 1976 20 WP MM LORNA 1976-02-25 21:00:00 TS 5.12678 158.571 main 1193 1159 P________PPP__ WP021976 5.13508 158.592 25 -1 5.13508 158.592 TC 25 5.10188 158.508 1 25 5.13508 158.592 25 1005 210 16 281
1976056N04163 1976 20 WP MM LORNA 1976-02-26 00:00:00 TS 5.30000 157.800 main 1159 1143 O________OOO__ jtwc_wp WP021976 5.30000 157.800 25 -1 5.30000 157.800 TC 25 5.30000 157.800 1 25 5.30000 157.800 25 1005 240 15 286
1976056N04163 1976 20 WP MM LORNA 1976-02-26 03:00:00 TS 5.52914 157.171 main 1143 1133 P________PPP__ WP021976 5.52732 157.177 25 -1 5.52732 157.177 TC 25 5.53462 157.150 1 25 5.52732 157.177 25 1005 240 13 292
1976056N04163 1976 20 WP MM LORNA 1976-02-26 06:00:00 TS 5.80112 156.582 main 1137 1130 O________OPO__ jtwc_wp WP021976 5.80000 156.600 25 -1 5.80000 156.600 TC 25 5.80448 156.527 1 25 5.80000 156.600 25 1006 240 13 295
1976056N04163 1976 20 WP MM LORNA 1976-02-26 09:00:00 TS 6.09362 155.947 main 1130 1125 P________PPP__ WP021976 6.09245 155.957 25 -1 6.09245 155.957 TC 25 6.09712 155.916 1 25 6.09245 155.957 25 1006 240 14 295
1976056N04163 1976 20 WP MM LORNA 1976-02-26 12:00:00 TS 6.40000 155.300 main 1130 1126 O________OOO__ jtwc_wp WP021976 6.40000 155.300 25 -1 6.40000 155.300 TC 25 6.40000 155.300 1 25 6.40000 155.300 25 1006 240 14 295
1976056N04163 1976 20 WP MM LORNA 1976-02-26 15:00:00 TS 6.70221 154.645 main 1130 1130 P________PPP__ WP021976 6.69991 154.650 25 -1 6.69991 154.650 TC 25 6.70909 154.629 1 25 6.69991 154.650 25 1004 240 14 295
1976056N04163 1976 20 WP MM LORNA 1976-02-26 18:00:00 TS 7.00565 153.989 main 1140 1136 O________OPO__ jtwc_wp WP021976 7.00000 154.000 25 -1 7.00000 154.000 TC 25 7.02259 153.955 1 25 7.00000 154.000 25 1003 240 14 295
1976056N04163 1976 20 WP MM LORNA 1976-02-26 21:00:00 TS 7.31179 153.327 main 1151 1151 P________PPP__ WP021976 7.30747 153.335 25 -1 7.30747 153.335 TC 25 7.32477 153.304 1 25 7.30747 153.335 25 1001 240 14 296
1976056N04163 1976 20 WP MM LORNA 1976-02-27 00:00:00 TS 7.61667 152.733 1006 tokyo main 1171 1171 OOO______OOO__ jtwc_wp WP021976 7.60000 152.700 25 -1 7.40000 154.000 2 1006 0 0 0 8.10000 152.000 1 23 1004 7.60000 152.700 TC 25 7.60000 152.700 1 25 7.60000 152.700 25 1000 240 13 297
1976056N04163 1976 20 WP MM LORNA 1976-02-27 03:00:00 TS 7.89086 152.204 main 1196 1195 PPP______PPP__ WP021976 7.87244 152.112 25 -1 7.72509 153.518 2 1005 0 0 8.30010 151.545 1 23 1004 7.87244 152.112 TC 25 7.82436 152.150 1 25 7.87244 152.112 25 999 240 11 296
1976056N04163 1976 20 WP MM LORNA 1976-02-27 06:00:00 TS 8.11689 151.713 1004 tokyo main 1213 1213 OOOO_____OPO__ jtwc_wp WP021976 8.10000 151.600 25 -1 8.00000 153.000 2 1004 0 0 0 8.50000 151.100 1 23 1004 7.90000 151.300 TD 25 1002 8.10000 151.600 TC 25 8.02213 151.652 1 25 8.10000 151.600 25 998 240 10 294
1976056N04163 1976 20 WP MM LORNA 1976-02-27 09:00:00 TS 8.30344 151.273 main 1233 1233 PPPP_____PPP__ WP021976 8.25742 151.162 25 -1 8.19994 152.422 2 1004 0 0 8.69998 150.677 1 26 1004 8.18261 150.970 TD 25 1002 8.25742 151.162 TC 25 8.20884 151.203 1 25 8.25742 151.162 25 998 240 9 294
1976056N04163 1976 20 WP MM LORNA 1976-02-27 12:00:00 TS 8.48519 150.863 1004 tokyo main 1249 1246 OOOO_____OOO__ jtwc_wp WP021976 8.40000 150.800 25 -1 8.40000 151.800 2 1004 0 0 0 8.90000 150.300 1 29 1004 8.50000 150.700 TD 25 1002 8.40000 150.800 TC 25 8.40000 150.800 1 25 8.40000 150.800 25 998 240 9 299
1976056N04163 1976 20 WP MM LORNA 1976-02-27 15:00:00 TS 8.72190 150.506 main 1258 1258 PPPP_____PPP__ WP021976 8.58492 150.492 27 -1 8.69253 151.135 2 1003 0 0 9.10746 149.970 1 29 1002 8.86490 150.515 TD 25 1001 8.58492 150.492 TC 27 8.63368 150.444 1 26 8.58492 150.492 27 998 240 8 305
1976056N04163 1976 20 WP MM LORNA 1976-02-27 18:00:00 TS 8.96743 150.175 1002 tokyo main 1282 1279 OOOO_____OPO__ jtwc_wp WP021976 8.80000 150.200 30 -1 9.00000 150.500 2 1002 0 0 0 9.30000 149.700 1 29 1000 9.20000 150.300 TD 25 1000 8.80000 150.200 TC 30 8.87199 150.127 1 27 8.80000 150.200 30 998 240 8 305
1976056N04163 1976 20 WP MM LORNA 1976-02-27 21:00:00 TS 9.20132 149.820 main 1293 1293 PPPP_____PPP__ WP021976 9.05751 149.850 30 -1 9.25735 149.970 2 1001 0 0 9.45748 149.470 1 33 999 9.42254 149.930 TD 27 1000 9.05751 149.850 TC 30 9.09933 149.822 1 28 9.05751 149.850 30 998 240 8 303
1976056N04163 1976 20 WP MM LORNA 1976-02-28 00:00:00 TS 9.41429 149.471 1000 tokyo main 1309 1307 OOOO_____OOO__ jtwc_wp WP021976 9.30000 149.500 30 -1 9.50000 149.500 2 1000 0 0 0 9.60000 149.300 2 38 998 9.60000 149.500 TD 30 1000 9.30000 149.500 TC 30 9.30000 149.500 1 30 9.30000 149.500 30 998 240 8 302
1976056N04163 1976 20 WP MM LORNA 1976-02-28 03:00:00 TS 9.61190 149.159 main 1326 1324 PPPP_____PPP__ WP021976 9.47236 149.222 32 -1 9.78749 149.020 2 999 0 0 9.75745 149.207 2 38 998 9.81504 149.070 TD 30 1000 9.47236 149.222 TC 32 9.50627 149.150 1 31 9.47236 149.222 32 998 240 7 300
1976056N04163 1976 20 WP MM LORNA 1976-02-28 06:00:00 TS 9.76815 148.839 998 tokyo main 1342 1340 OOOO_____OPO__ jtwc_wp WP021976 9.60000 148.900 35 0 10.0000 148.600 9 998 0 0 0 9.90000 149.100 2 38 998 10.0000 148.700 TD 30 1000 9.60000 148.900 TC 35 9.67702 148.775 1 32 9.60000 148.900 35 998 240 7 292
1976056N04163 1976 20 WP MM LORNA 1976-02-28 09:00:00 TS 9.87828 148.478 main 1350 1346 PPPP_____PPP__ WP021976 9.73750 148.438 35 0 10.0748 148.300 9 998 0 0 10.0150 148.895 2 38 998 10.1200 148.460 TD 32 1000 9.73750 148.438 TC 35 9.78428 148.363 1 33 9.73750 148.438 35 998 240 8 280
1976056N04163 1976 20 WP MM LORNA 1976-02-28 12:00:00 TS 9.90769 148.054 998 tokyo main 1346 1344 OOOO_____OOO__ jtwc_wp WP021976 9.80000 147.900 35 0 10.0000 148.000 9 998 0 0 0 10.1000 148.600 2 38 998 10.2000 148.300 TS 35 1000 9.80000 147.900 TC 35 9.80000 147.900 2 35 9.80000 147.900 35 998 240 9 268
1976056N04163 1976 20 WP MM LORNA 1976-02-28 15:00:00 TS 9.84566 147.572 main 1333 1322 PPP______PPP__ WP021976 9.75991 147.365 35 0 9.78745 147.587 9 998 0 0 10.2250 148.230 2 38 998 TS 9.75991 147.365 TC 35 9.67696 147.399 2 33 9.75991 147.365 35 998 210 10 256
1976056N04163 1976 20 WP MM LORNA 1976-02-28 18:00:00 TS 9.66118 147.024 998 tokyo main 1322 1288 OOO______OPO__ jtwc_wp WP021976 9.60000 146.800 35 0 9.50000 147.100 9 998 0 0 0 10.2000 147.800 2 38 998 9.60000 146.800 TC 35 9.46709 146.846 2 32 9.60000 146.800 35 998 180 12 246
1976056N04163 1976 20 WP MM LORNA 1976-02-28 21:00:00 TS 9.37218 146.475 main 1288 1256 PPP______PPP__ WP021976 9.29986 146.222 32 -1 9.21233 146.595 9 998 0 0 9.89751 147.342 2 33 999 9.29986 146.222 TC 32 9.22369 146.246 2 31 9.29986 146.222 32 998 180 13 242
1976056N04163 1976 20 WP MM LORNA 1976-02-29 00:00:00 TS 9.06667 145.883 998 tokyo main 1257 1238 OOO______OOO__ jtwc_wp WP021976 9.00000 145.600 30 -1 9.00000 146.000 9 998 0 0 0 9.40000 146.900 1 29 1000 9.00000 145.600 TC 30 9.00000 145.600 1 30 9.00000 145.600 30 998 180 13 248
1976056N04163 1976 20 WP MM LORNA 1976-02-29 03:00:00 TS 8.88072 145.250 main 1241 1228 PPP______PPP__ WP021976 8.86991 144.923 27 -1 8.96256 145.273 9 999 0 0 8.84488 146.543 1 29 1000 8.86991 144.923 TC 27 8.86715 144.918 1 28 8.86991 144.923 27 999 150 13 255
1976056N04163 1976 20 WP MM LORNA 1976-02-29 06:00:00 TS 8.72707 144.583 1000 tokyo main 1230 1225 OOO______OPO__ jtwc_wp WP021976 8.80000 144.200 25 -1 9.00000 144.500 9 1000 0 0 0 8.20000 146.200 1 29 1000 8.80000 144.200 TC 25 8.76243 144.195 1 27 8.80000 144.200 25 1000 120 14 256
1976056N04163 1976 20 WP MM LORNA 1976-02-29 09:00:00 TS 8.54599 143.905 main 1225 1225 PPP______PPP__ WP021976 8.69990 143.458 25 -1 8.99987 143.785 9 1000 0 0 7.49994 145.823 1 29 1001 8.69990 143.458 TC 25 8.67646 143.449 1 26 8.69990 143.458 25 1002 120 15 259
1976056N04163 1976 20 WP MM LORNA 1976-02-29 12:00:00 TS 8.43478 143.122 1000 tokyo main 1239 1209 OOO______OOO__ jtwc_wp WP021976 8.60000 142.700 25 -1 9.00000 143.100 2 1000 0 0 0 6.80000 145.400 1 29 1002 8.60000 142.700 TC 25 8.60000 142.700 1 25 8.60000 142.700 25 1004 120 16 264
1976056N04163 1976 20 WP MM LORNA 1976-02-29 15:00:00 TS 8.37641 142.303 main 1209 1178 PPP______PPP__ WP021976 8.49240 141.943 22 -1 8.99985 142.443 2 1000 0 0 6.17514 144.917 1 24 1003 8.49240 141.943 TC 22 8.50566 141.939 1 23 8.49240 141.943 22 1004 120 16 268
1976056N04163 1976 20 WP MM LORNA 1976-02-29 18:00:00 TS 8.38479 141.463 1000 tokyo main 1178 1159 OOO______OPO__ jtwc_wp WP021976 8.40000 141.200 20 -1 9.00000 141.800 2 1000 0 0 0 5.60000 144.400 0 19 1004 8.40000 141.200 TC 20 8.42013 141.183 1 22 8.40000 141.200 20 1005 120 17 273
1976056N04163 1976 20 WP MM LORNA 1976-02-29 21:00:00 TS 8.47091 140.588 main 1162 1126 PP_______PPP__ WP021976 8.33498 140.463 20 -1 9.00013 141.090 2 1000 0 0 0 8.33498 140.463 TC 20 8.34949 140.460 1 21 8.33498 140.463 20 1005 150 15 272
1976056N04163 1976 20 WP MM LORNA 1976-03-01 00:00:00 TS 8.44000 139.940 1000 tokyo main 1122 1105 OO_______OOO__ jtwc_wp WP021976 8.30000 139.800 20 -1 9.00000 140.500 2 1000 0 0 0 8.30000 139.800 TC 20 8.30000 139.800 1 20 8.30000 139.800 20 1006 180 11 268
1976056N04163 1976 20 WP MM LORNA 1976-03-01 03:00:00 TS 8.43090 139.449 main 1101 1090 PP_______PPP__ WP021976 8.29231 139.270 20 -1 8.99978 140.198 2 1000 0 0 8.29231 139.270 TC 20 8.27777 139.236 1 20 8.29231 139.270 20 1006 180 9 270
1976056N04163 1976 20 WP MM LORNA 1976-03-01 06:00:00 TS 8.43533 139.027 1000 tokyo main 1086 1072 OO_______OPO__ jtwc_wp WP021976 8.30000 138.800 20 -1 9.00000 140.000 2 1000 0 0 0 8.30000 138.800 TC 20 8.27667 138.733 1 20 8.30000 138.800 20 1006 180 9 270
1976056N04163 1976 20 WP MM LORNA 1976-03-01 09:00:00 TS 8.43742 138.571 main 1072 1056 PP_______PPP__ WP021976 8.29994 138.300 20 -1 9.00002 139.693 2 1000 0 0 8.29994 138.300 TC 20 8.28727 138.264 1 20 8.29994 138.300 20 1006 180 10 269
1976056N04163 1976 20 WP MM LORNA 1976-03-01 12:00:00 TS 8.41053 138.053 1000 tokyo main 1056 1041 OO_______OOO__ jtwc_wp WP021976 8.30000 137.800 20 -1 9.00000 139.400 2 1000 0 0 0 8.30000 137.800 TC 20 8.30000 137.800 1 20 8.30000 137.800 20 1006 180 11 267
1976056N04163 1976 20 WP MM LORNA 1976-03-01 15:00:00 TS 8.37677 137.510 main 1041 1020 PP_______PPP__ WP021976 8.29994 137.300 20 -1 8.99999 139.178 2 1001 0 0 8.29994 137.300 TC 20 8.29568 137.308 1 20 8.29994 137.300 20 1006 150 11 266
1976056N04163 1976 20 WP MM LORNA 1976-03-01 18:00:00 TS 8.33933 136.933 1002 tokyo main 1018 1011 OO_______OPO__ jtwc_wp WP021976 8.30000 136.800 20 -1 9.00000 139.000 2 1002 0 0 0 8.30000 136.800 TC 20 8.29214 136.815 1 20 8.30000 136.800 20 1007 120 12 266
1976056N04163 1976 20 WP MM LORNA 1976-03-01 21:00:00 TS 8.29806 136.309 main 1011 1008 P________PPP__ WP021976 8.29991 136.308 20 -1 2 0 0 8.29991 136.308 TC 20 8.29253 136.314 1 20 8.29991 136.308 20 1007 120 11 268
1976056N04163 1976 20 WP MM LORNA 1976-03-02 00:00:00 TS 8.30000 135.800 main 1008 961 O________OOO__ jtwc_wp WP021976 8.30000 135.800 20 -1 8.30000 135.800 TC 20 8.30000 135.800 1 20 8.30000 135.800 20 1008 120 10 270
1976056N04163 1976 20 WP MM LORNA 1976-03-02 03:00:00 TS 8.29875 135.260 main 961 895 P________PPP__ WP021976 8.29245 135.257 20 -1 8.29245 135.257 TC 20 8.31764 135.268 1 20 8.29245 135.257 20 1008 150 11 271
1976056N04163 1976 20 WP MM LORNA 1976-03-02 06:00:00 TS 8.31056 134.706 main 895 840 O________OPO__ jtwc_wp WP021976 8.30000 134.700 20 -1 8.30000 134.700 TC 20 8.34225 134.723 1 20 8.30000 134.700 20 1008 180 11 273
1976056N04163 1976 20 WP MM LORNA 1976-03-02 09:00:00 TS 8.35513 134.154 main 841 775 P________PPP__ WP021976 8.34992 134.150 20 -1 8.34992 134.150 TC 20 8.37074 134.165 1 20 8.34992 134.150 20 1007 180 11 275
1976056N04163 1976 20 WP MM LORNA 1976-03-02 12:00:00 TS 8.40000 133.600 main 775 720 O________OOO__ jtwc_wp WP021976 8.40000 133.600 20 -1 8.40000 133.600 TC 20 8.40000 133.600 1 20 8.40000 133.600 20 1007 180 11 273
1976056N04163 1976 20 WP MM LORNA 1976-03-02 15:00:00 TS 8.40681 133.050 main 720 654 P________PPP__ WP021976 8.39989 133.057 20 -1 8.39989 133.057 TC 20 8.42755 133.029 1 20 8.39989 133.057 20 1007 180 11 271
1976056N04163 1976 20 WP MM LORNA 1976-03-02 18:00:00 TS 8.41329 132.489 main 654 589 O________OPO__ jtwc_wp WP021976 8.40000 132.500 20 -1 8.40000 132.500 TC 20 8.45316 132.455 1 20 8.40000 132.500 20 1007 180 11 272
1976056N04163 1976 20 WP MM LORNA 1976-03-02 21:00:00 TS 8.44758 131.902 main 589 525 P________PPP__ WP021976 8.43771 131.910 20 -1 8.43771 131.910 TC 20 8.47719 131.878 1 20 8.43771 131.910 20 1007 180 12 274
1976056N04163 1976 20 WP MM LORNA 1976-03-03 00:00:00 TS 8.50000 131.300 main 525 O________OOO__ jtwc_wp WP021976 8.50000 131.300 20 -1 8.50000 131.300 TC 20 8.50000 131.300 1 20 8.50000 131.300 20 1007 180 12 275

デジタル台風データ・検索

IBTrACS Databaseについて

本データベースは、米国NOAAが公開する1842年以降の世界の熱帯低気圧のベストトラックデータアーカイブInternational Best Track Archive for Climate Stewardship (IBTrACS)を、ウェブで閲覧しやすい形式に変換したものです。

最終更新日:2021-12-06